Time;durP1;ratioP1;P1;durP2;ratioP2;P2;SDS_P1;SDS_P2;PMS_P1;PMS_P2;Temp;Humidity;BMP_temperature;BMP_pressure;BME280_temperature;BME280_humidity;BME280_pressure;Samples;Min_cycle;Max_cycle;Signal;HPM_P1;HPM_P2
2023/11/17 00:01:44;;;;;;;0.10;0.10;;;;;;;12.92;57.02;94478.34;6073525;23;20045;-86
2023/11/17 00:04:11;;;;;;;1.35;0.17;;;;;;;12.63;57.11;94484.94;6097237;23;20044;-86
2023/11/17 00:06:37;;;;;;;0.50;0.20;;;;;;;12.70;57.84;94491.72;6096774;23;20056;-85
2023/11/17 00:17:20;;;;;;;1.02;0.22;;;;;;;12.73;57.09;94500.94;6123873;23;20093;-86
2023/11/17 00:19:48;;;;;;;0.10;0.10;;;;;;;12.61;57.73;94505.22;6073350;23;20049;-86
2023/11/17 00:22:14;;;;;;;0.47;0.20;;;;;;;12.64;57.74;94517.81;6073811;23;20010;-86
2023/11/17 00:24:40;;;;;;;0.30;0.10;;;;;;;12.70;58.16;94523.03;6096800;23;20006;-86
2023/11/17 00:27:06;;;;;;;0.20;0.10;;;;;;;12.85;57.23;94517.53;6096488;23;20033;-86
2023/11/17 00:39:54;;;;;;;0.30;0.20;;;;;;;12.75;57.55;94529.44;6135837;23;20031;-86
2023/11/17 00:42:19;;;;;;;2.30;0.20;;;;;;;12.60;58.46;94548.75;6124918;23;20010;-85
2023/11/17 00:44:46;;;;;;;0.30;0.20;;;;;;;12.59;58.66;94544.53;6097351;23;20014;-85
2023/11/17 00:47:12;;;;;;;1.27;0.30;;;;;;;12.41;59.07;94544.41;6097349;23;20061;-85
2023/11/17 00:49:42;;;;;;;1.10;0.20;;;;;;;12.66;58.66;94568.81;6097365;23;20005;-85
2023/11/17 00:52:08;;;;;;;0.50;0.20;;;;;;;12.66;58.14;94588.88;6119978;23;20006;-85
2023/11/17 01:04:55;;;;;;;0.70;0.20;;;;;;;12.08;59.91;94623.47;6130462;23;20026;-85
2023/11/17 01:07:20;;;;;;;1.95;0.20;;;;;;;11.93;60.53;94631.50;6098553;23;20045;-85
2023/11/17 01:09:46;;;;;;;0.20;0.13;;;;;;;11.86;60.87;94648.88;6074948;23;20010;-86
2023/11/17 01:12:11;;;;;;;0.52;0.15;;;;;;;11.77;61.01;94661.31;6074608;23;20010;-85
2023/11/17 01:14:37;;;;;;;0.13;0.13;;;;;;;11.56;61.31;94659.69;6074757;23;20017;-85
2023/11/17 01:22:04;;;;;;;0.85;0.10;;;;;;;11.25;61.05;94689.63;6123499;23;20062;-85
2023/11/17 01:24:30;;;;;;;0.30;0.08;;;;;;;11.29;62.05;94708.25;6099381;23;20024;-85
2023/11/17 01:26:55;;;;;;;0.10;0.10;;;;;;;11.30;61.69;94712.47;6098732;23;20006;-85
2023/11/17 01:29:21;;;;;;;0.20;0.08;;;;;;;11.41;61.28;94717.13;6123147;23;20065;-85
2023/11/17 01:31:46;;;;;;;1.23;0.10;;;;;;;11.46;61.27;94719.13;6123109;23;20012;-85
2023/11/17 01:36:37;;;;;;;0.10;0.10;;;;;;;11.32;61.29;94728.69;6118083;23;20026;-85
2023/11/17 01:39:05;;;;;;;0.65;0.10;;;;;;;11.42;61.29;94736.94;6074944;23;20041;-84
2023/11/17 01:41:30;;;;;;;0.10;0.00;;;;;;;11.38;61.09;94737.53;6098243;23;20013;-85
2023/11/17 01:43:57;;;;;;;0.10;0.10;;;;;;;11.41;61.52;94737.16;6098733;23;20005;-85
2023/11/17 01:48:57;;;;;;;0.10;0.10;;;;;;;11.50;60.99;94759.44;6077508;23;20058;-85
2023/11/17 01:51:24;;;;;;;0.10;0.10;;;;;;;11.44;61.52;94784.44;6074562;23;20018;-85
2023/11/17 01:53:49;;;;;;;0.10;0.00;;;;;;;11.43;61.01;94767.22;6122442;23;20013;-86
2023/11/17 01:56:15;;;;;;;0.00;0.00;;;;;;;11.39;61.39;94796.44;6122591;23;20002;-86
2023/11/17 01:58:44;;;;;;;0.00;0.00;;;;;;;11.38;61.43;94797.44;6099490;23;20053;-85
2023/11/17 02:09:05;;;;;;;0.00;0.00;;;;;;;11.27;59.75;94817.81;6144837;23;20014;-86
2023/11/17 02:11:44;;;;;;;0.10;0.10;;;;;;;11.21;60.16;94818.56;6097905;23;20024;-86
2023/11/17 02:14:36;;;;;;;0.00;0.00;;;;;;;11.09;60.52;94823.50;6098092;23;20009;-86
2023/11/17 02:17:03;;;;;;;0.08;0.08;;;;;;;11.43;59.16;94839.31;6097460;23;20006;-86
2023/11/17 02:19:35;;;;;;;0.00;0.00;;;;;;;11.34;59.16;94843.88;6099244;23;20013;-87
2023/11/17 02:22:06;;;;;;;0.10;0.10;;;;;;;11.32;59.52;94857.06;6098113;23;20010;-86
2023/11/17 02:24:54;;;;;;;0.00;0.00;;;;;;;11.22;59.62;94856.63;6098533;23;20033;-86
2023/11/17 02:27:37;;;;;;;0.10;0.10;;;;;;;11.23;59.40;94854.81;6097482;23;20031;-86
2023/11/17 02:30:05;;;;;;;0.00;0.00;;;;;;;11.25;59.42;94845.84;6097834;23;20028;-85
2023/11/17 02:35:01;;;;;;;0.65;0.03;;;;;;;11.18;59.34;94847.59;6127010;23;20026;-86
2023/11/17 02:37:27;;;;;;;0.00;0.00;;;;;;;11.25;58.33;94864.06;6099047;23;20018;-86
2023/11/17 02:39:56;;;;;;;0.20;0.00;;;;;;;11.24;57.64;94857.22;6126932;23;20005;-86
2023/11/17 02:42:26;;;;;;;0.10;0.10;;;;;;;11.21;58.25;94868.00;6102793;23;20037;-86
2023/11/17 02:44:52;;;;;;;0.30;0.10;;;;;;;11.20;57.80;94869.03;6127387;23;20002;-86
2023/11/17 03:00:14;;;;;;;0.65;0.10;;;;;;;10.98;58.72;94909.09;6152301;23;20025;-86
2023/11/17 03:02:40;;;;;;;0.05;0.00;;;;;;;10.87;58.78;94910.38;6103004;23;20032;-86
2023/11/17 03:05:15;;;;;;;2.83;0.10;;;;;;;10.94;58.62;94909.44;6126759;23;20088;-86
2023/11/17 03:07:40;;;;;;;1.00;0.10;;;;;;;10.85;58.87;94913.19;6126421;23;20009;-86
2023/11/17 03:12:32;;;;;;;0.03;0.03;;;;;;;11.09;57.32;94913.78;6129170;23;20006;-86
2023/11/17 03:14:58;;;;;;;0.00;0.00;;;;;;;11.04;57.25;94922.16;6126418;23;20109;-87
2023/11/17 03:17:23;;;;;;;0.00;0.00;;;;;;;11.01;57.56;94913.94;6127544;23;20021;-86
2023/11/17 03:19:49;;;;;;;0.03;0.00;;;;;;;11.03;57.28;94919.75;6103305;23;20013;-86
2023/11/17 03:27:15;;;;;;;0.20;0.10;;;;;;;10.92;56.88;94921.84;6145989;23;20081;-86
2023/11/17 03:29:44;;;;;;;0.10;0.10;;;;;;;10.71;58.05;94921.84;6097360;23;20018;-86
2023/11/17 03:32:12;;;;;;;0.20;0.10;;;;;;;10.79;58.16;94929.53;6073291;23;20023;-86
2023/11/17 03:34:40;;;;;;;0.08;0.08;;;;;;;10.76;57.46;94930.72;6073821;23;20049;-86
2023/11/17 03:49:52;;;;;;;0.10;0.10;;;;;;;10.70;57.33;94949.66;6123046;23;20276;-85
2023/11/17 03:52:21;;;;;;;0.22;0.10;;;;;;;10.67;57.55;94950.03;6073693;23;20009;-85
2023/11/17 03:54:47;;;;;;;0.03;0.03;;;;;;;10.65;57.29;94952.00;6074105;23;20016;-85
2023/11/17 03:57:12;;;;;;;0.10;0.10;;;;;;;10.46;57.46;94953.41;6097292;23;20010;-86
2023/11/17 04:07:14;;;;;;;0.40;0.10;;;;;;;10.31;58.28;94965.63;6098906;23;20033;-85
2023/11/17 04:09:39;;;;;;;0.20;0.10;;;;;;;10.34;57.87;94973.06;6122381;23;20017;-86
2023/11/17 04:12:09;;;;;;;0.10;0.10;;;;;;;10.34;57.88;94965.28;6122030;23;20014;-85
2023/11/17 04:14:39;;;;;;;0.10;0.10;;;;;;;10.24;58.35;94981.09;6099269;23;20006;-87
2023/11/17 04:17:05;;;;;;;0.15;0.10;;;;;;;10.28;58.57;94971.16;6147208;23;20072;-87
2023/11/17 04:22:09;;;;;;;0.20;0.10;;;;;;;10.44;57.55;94970.97;6110664;23;20026;-85
2023/11/17 04:24:35;;;;;;;0.10;0.05;;;;;;;10.31;58.12;94978.63;6096410;23;20073;-84
2023/11/17 04:27:00;;;;;;;0.00;0.00;;;;;;;10.24;58.40;94977.69;6097789;23;20014;-86
2023/11/17 04:34:26;;;;;;;0.10;0.10;;;;;;;10.28;58.69;94999.75;6053559;23;2153030;-86
2023/11/17 04:36:52;;;;;;;0.10;0.10;;;;;;;10.25;59.02;94987.13;6123215;23;20018;-85
2023/11/17 04:39:24;;;;;;;0.30;0.10;;;;;;;10.39;58.41;94994.13;6099520;23;20014;-86
2023/11/17 04:41:50;;;;;;;0.10;0.10;;;;;;;10.28;58.68;94992.78;6076105;23;20006;-85
2023/11/17 04:46:55;;;;;;;1.25;0.10;;;;;;;10.22;58.48;94982.28;6128849;23;20022;-86
2023/11/17 04:49:24;;;;;;;0.10;0.10;;;;;;;10.45;57.90;94998.59;6103619;23;20014;-86
2023/11/17 04:51:49;;;;;;;0.00;0.00;;;;;;;10.23;58.61;94982.09;6104540;23;20013;-85
2023/11/17 04:54:15;;;;;;;0.20;0.15;;;;;;;10.13;59.66;95003.16;6104158;23;20064;-85
2023/11/17 04:56:43;;;;;;;0.10;0.10;;;;;;;10.04;59.44;94995.66;6128474;23;20006;-85
2023/11/17 04:59:12;;;;;;;0.10;0.10;;;;;;;10.34;58.24;95001.66;6131375;23;20022;-86
2023/11/17 05:01:38;;;;;;;0.47;0.10;;;;;;;10.16;58.88;95004.59;6099433;23;20040;-85
2023/11/17 05:04:07;;;;;;;0.45;0.30;;;;;;;10.00;59.66;95020.38;6098947;23;20098;-85
2023/11/17 05:06:35;;;;;;;0.10;0.10;;;;;;;9.87;59.94;95013.19;6075426;23;20006;-85
2023/11/17 05:11:39;;;;;;;0.10;0.10;;;;;;;9.85;61.12;95021.16;6140568;23;20014;-85
2023/11/17 05:14:05;;;;;;;0.68;0.10;;;;;;;9.84;60.98;95032.53;6098798;23;20010;-85
2023/11/17 05:16:34;;;;;;;0.10;0.10;;;;;;;9.85;59.95;95041.16;6075347;23;20014;-86
2023/11/17 05:21:25;;;;;;;0.20;0.10;;;;;;;9.60;60.22;95020.59;6128999;23;20014;-86
2023/11/17 05:23:51;;;;;;;0.10;0.00;;;;;;;9.49;60.68;95034.00;6099015;23;20021;-85
2023/11/17 05:26:17;;;;;;;0.50;0.17;;;;;;;9.68;60.10;95032.69;6098563;23;20005;-85
2023/11/17 05:28:45;;;;;;;0.22;0.10;;;;;;;9.31;60.52;95027.31;6098905;23;20009;-85
2023/11/17 05:31:11;;;;;;;0.00;0.00;;;;;;;9.43;60.84;95035.50;6075408;23;20101;-85
2023/11/17 05:36:02;;;;;;;0.20;0.03;;;;;;;9.55;59.83;95047.06;6123998;23;20022;-85
2023/11/17 05:38:28;;;;;;;0.20;0.10;;;;;;;9.54;60.19;95044.66;6098775;23;20286;-85
2023/11/17 05:40:53;;;;;;;0.60;0.10;;;;;;;9.41;60.50;95026.28;6099601;23;20010;-85
2023/11/17 05:43:21;;;;;;;0.10;0.10;;;;;;;9.45;60.60;95050.91;6099108;23;20017;-85
2023/11/17 05:45:50;;;;;;;0.10;0.10;;;;;;;9.46;60.44;95050.75;6098446;23;20014;-85
2023/11/17 06:03:37;;;;;;;0.43;0.30;;;;;;;9.34;61.59;95063.28;6124949;23;20075;-86
2023/11/17 06:06:02;;;;;;;0.93;0.20;;;;;;;9.40;60.99;95067.00;6098601;23;20009;-86
2023/11/17 06:08:31;;;;;;;1.00;0.20;;;;;;;9.58;60.26;95072.69;6099087;23;20016;-85
2023/11/17 06:10:58;;;;;;;0.20;0.20;;;;;;;9.61;60.25;95063.75;6098732;23;20021;-85
2023/11/17 06:13:28;;;;;;;0.20;0.20;;;;;;;9.58;60.23;95070.09;6099403;23;20021;-85
2023/11/17 06:15:53;;;;;;;0.65;0.10;;;;;;;9.57;60.90;95080.66;6098356;23;20006;-85
2023/11/17 06:18:19;;;;;;;0.28;0.13;;;;;;;9.65;60.26;95084.97;6098334;23;20002;-85
2023/11/17 06:23:10;;;;;;;1.08;0.20;;;;;;;9.54;60.38;95066.25;6122764;23;20018;-85
2023/11/17 06:25:35;;;;;;;0.25;0.25;;;;;;;9.49;61.14;95075.53;6074273;23;20018;-85
2023/11/17 06:28:01;;;;;;;0.20;0.20;;;;;;;9.61;60.33;95068.13;6074765;23;20010;-85
2023/11/17 06:30:26;;;;;;;0.30;0.30;;;;;;;9.37;61.72;95078.53;6099208;23;20120;-86
2023/11/17 06:32:54;;;;;;;0.30;0.30;;;;;;;9.52;60.67;95072.56;6098624;23;20085;-85
2023/11/17 06:35:19;;;;;;;0.43;0.30;;;;;;;9.48;60.95;95076.50;6074426;23;20051;-85
2023/11/17 06:40:10;;;;;;;0.70;0.40;;;;;;;9.56;60.57;95081.66;6117937;23;20061;-85
2023/11/17 06:42:36;;;;;;;0.30;0.30;;;;;;;9.42;61.35;95078.00;6096538;23;20013;-86
2023/11/17 06:45:03;;;;;;;0.40;0.20;;;;;;;9.47;60.68;95088.69;6073685;23;20006;-86
2023/11/17 06:47:28;;;;;;;0.40;0.40;;;;;;;9.50;60.46;95087.50;6097389;23;20010;-86
2023/11/17 06:49:55;;;;;;;0.40;0.40;;;;;;;9.40;61.38;95082.56;6097828;23;20137;-86
2023/11/17 06:52:20;;;;;;;0.40;0.40;;;;;;;9.50;60.85;95082.31;6097757;23;20009;-85
2023/11/17 06:54:46;;;;;;;0.40;0.40;;;;;;;9.41;61.24;95079.00;6097528;23;20002;-85
2023/11/17 06:57:12;;;;;;;0.30;0.30;;;;;;;9.41;61.37;95098.97;6098089;23;20029;-85
2023/11/17 06:59:39;;;;;;;0.30;0.30;;;;;;;9.37;61.44;95107.09;6097857;23;20016;-85
2023/11/17 07:02:06;;;;;;;0.60;0.40;;;;;;;9.39;61.27;95097.34;6074178;23;20040;-85
2023/11/17 07:04:32;;;;;;;0.73;0.45;;;;;;;9.50;61.10;95105.69;6097948;23;20010;-84
2023/11/17 07:06:59;;;;;;;0.90;0.40;;;;;;;9.46;60.85;95102.66;6098343;23;20005;-85
2023/11/17 07:09:30;;;;;;;0.95;0.40;;;;;;;9.59;60.50;95122.84;6097994;23;20005;-86
2023/11/17 07:11:59;;;;;;;0.40;0.40;;;;;;;9.50;61.19;95121.25;6098046;23;20077;-85
2023/11/17 07:14:25;;;;;;;0.60;0.60;;;;;;;9.55;61.02;95117.19;6097584;23;20092;-86
2023/11/17 07:16:54;;;;;;;1.48;0.50;;;;;;;9.46;61.32;95122.59;6097940;23;20008;-85
2023/11/17 07:19:20;;;;;;;1.00;0.52;;;;;;;9.45;61.57;95121.00;6098016;23;20114;-86
2023/11/17 07:21:47;;;;;;;0.50;0.40;;;;;;;9.51;61.68;95131.50;6097520;23;20006;-85
2023/11/17 07:26:45;;;;;;;0.40;0.40;;;;;;;9.51;61.33;95133.28;6122284;23;20026;-85
2023/11/17 07:29:13;;;;;;;0.50;0.50;;;;;;;9.66;60.84;95138.53;6098893;23;20141;-85
2023/11/17 07:31:43;;;;;;;0.75;0.50;;;;;;;9.65;60.87;95150.69;6097795;23;20071;-85
2023/11/17 07:34:18;;;;;;;0.60;0.60;;;;;;;9.63;60.70;95129.28;6097241;23;20014;-85
2023/11/17 07:36:47;;;;;;;0.75;0.75;;;;;;;9.50;61.45;95155.03;6097114;23;20009;-85
2023/11/17 07:39:13;;;;;;;0.70;0.70;;;;;;;9.59;61.10;95160.00;6097641;23;20017;-85
2023/11/17 07:41:40;;;;;;;1.23;0.45;;;;;;;9.66;61.20;95175.69;6073849;23;20009;-86
2023/11/17 07:44:08;;;;;;;1.15;0.70;;;;;;;9.45;61.95;95171.13;6097095;23;20002;-85
2023/11/17 07:46:35;;;;;;;1.80;1.45;;;;;;;9.53;61.58;95165.88;6095925;23;20014;-85
2023/11/17 07:49:10;;;;;;;0.90;0.90;;;;;;;9.58;61.44;95173.16;6097777;23;20018;-84
2023/11/17 07:51:35;;;;;;;2.85;1.70;;;;;;;9.63;60.68;95178.63;6074236;23;20016;-85
2023/11/17 07:54:01;;;;;;;9.23;4.68;;;;;;;9.51;61.72;95178.22;6121587;23;20097;-85
2023/11/17 07:56:29;;;;;;;1.70;1.60;;;;;;;9.61;60.99;95180.59;6073291;23;20010;-84
2023/11/17 07:58:56;;;;;;;1.45;1.08;;;;;;;9.53;61.78;95178.06;6074047;23;20021;-85
2023/11/17 08:01:22;;;;;;;1.42;0.80;;;;;;;9.61;61.07;95178.00;6097264;23;20017;-85
2023/11/17 08:03:49;;;;;;;0.90;0.80;;;;;;;9.58;61.02;95173.97;6097107;23;20014;-84
2023/11/17 08:06:15;;;;;;;1.40;1.30;;;;;;;9.55;61.00;95173.50;6096299;23;20098;-85
2023/11/17 08:08:41;;;;;;;2.05;0.90;;;;;;;9.53;61.08;95196.22;6072635;23;20033;-85
2023/11/17 08:11:09;;;;;;;1.00;1.00;;;;;;;9.62;60.92;95191.81;6073208;23;20013;-85
2023/11/17 08:13:35;;;;;;;1.80;0.80;;;;;;;9.44;61.28;95187.66;6097846;23;20002;-85
2023/11/17 08:16:01;;;;;;;1.00;0.85;;;;;;;9.51;61.21;95199.00;6073652;23;20017;-85
2023/11/17 08:18:27;;;;;;;1.95;0.80;;;;;;;9.54;61.76;95193.47;6072812;23;20014;-84
2023/11/17 08:20:52;;;;;;;1.60;0.80;;;;;;;9.39;61.95;95200.38;6097960;23;20016;-85
2023/11/17 08:23:19;;;;;;;1.02;0.90;;;;;;;9.36;61.71;95185.94;6073852;23;20017;-85
2023/11/17 08:25:45;;;;;;;1.30;0.88;;;;;;;9.49;61.80;95187.16;6097706;23;20149;-83
2023/11/17 08:28:11;;;;;;;1.90;0.90;;;;;;;9.50;62.07;95196.56;6097868;23;20037;-85
2023/11/17 08:30:37;;;;;;;1.55;0.60;;;;;;;9.70;60.81;95200.34;6097383;23;20037;-85
2023/11/17 08:33:03;;;;;;;0.70;0.70;;;;;;;9.69;60.95;95205.69;6097764;23;20093;-85
2023/11/17 08:35:30;;;;;;;1.05;0.70;;;;;;;9.55;61.16;95195.06;6073629;23;20018;-85
2023/11/17 08:37:55;;;;;;;0.70;0.60;;;;;;;9.63;60.73;95189.00;6097370;23;20006;-85
2023/11/17 08:40:22;;;;;;;0.75;0.60;;;;;;;9.56;61.10;95212.28;6097912;23;20053;-85
2023/11/17 08:42:47;;;;;;;0.80;0.77;;;;;;;9.75;60.80;95211.03;6097831;23;20006;-86
2023/11/17 08:52:58;;;;;;;1.25;0.70;;;;;;;9.66;61.12;95211.25;6121827;23;20018;-84
2023/11/17 08:55:27;;;;;;;0.60;0.60;;;;;;;9.73;60.95;95209.59;6072346;23;20016;-84
2023/11/17 08:57:53;;;;;;;0.50;0.50;;;;;;;9.71;60.19;95209.75;6095929;23;20018;-84
2023/11/17 09:00:24;;;;;;;0.93;0.50;;;;;;;9.42;61.38;95217.38;6073391;23;20010;-85
2023/11/17 09:02:51;;;;;;;0.70;0.52;;;;;;;9.55;60.63;95221.03;6096177;23;20017;-84
2023/11/17 09:05:18;;;;;;;0.50;0.50;;;;;;;9.56;60.80;95220.06;6121004;23;20006;-86
2023/11/17 09:07:51;;;;;;;2.05;0.50;;;;;;;9.64;61.17;95229.59;6096741;23;20045;-85
2023/11/17 09:10:19;;;;;;;1.17;0.50;;;;;;;9.67;60.98;95226.66;6070448;23;20013;-84
2023/11/17 09:12:45;;;;;;;0.95;0.80;;;;;;;9.62;61.46;95221.16;6097513;23;20013;-84
2023/11/17 09:15:20;;;;;;;0.80;0.70;;;;;;;9.55;61.46;95231.41;6074889;23;20032;-85
2023/11/17 09:17:50;;;;;;;0.55;0.50;;;;;;;9.65;60.98;95217.41;6098828;23;20010;-85
2023/11/17 09:20:17;;;;;;;1.35;0.50;;;;;;;9.62;61.21;95233.34;6099022;23;20009;-85
2023/11/17 09:22:47;;;;;;;0.45;0.45;;;;;;;9.78;60.77;95236.63;6097566;23;20020;-84
2023/11/17 09:25:14;;;;;;;0.50;0.50;;;;;;;9.70;61.26;95244.50;6098813;23;20002;-85
2023/11/17 09:27:56;;;;;;;0.40;0.40;;;;;;;9.75;61.09;95241.41;6122716;23;20014;-85
2023/11/17 09:30:22;;;;;;;1.58;0.75;;;;;;;9.56;61.19;95227.84;6098838;23;20045;-85
2023/11/17 09:32:55;;;;;;;0.40;0.40;;;;;;;9.70;60.65;95222.91;6099483;23;20006;-85
2023/11/17 09:35:22;;;;;;;1.10;0.60;;;;;;;9.74;61.20;95239.75;6123288;23;20009;-86
2023/11/17 09:37:50;;;;;;;1.10;0.70;;;;;;;9.79;61.28;95243.47;6075735;23;20009;-85
2023/11/17 09:40:20;;;;;;;0.77;0.60;;;;;;;9.82;60.76;95244.09;6098721;23;20068;-85
2023/11/17 09:42:48;;;;;;;1.05;0.70;;;;;;;9.58;62.07;95245.88;6097734;23;20014;-85
2023/11/17 09:47:46;;;;;;;1.25;0.80;;;;;;;9.93;60.69;95246.31;6116426;23;20021;-86
2023/11/17 09:50:12;;;;;;;0.82;0.80;;;;;;;9.75;60.80;95242.19;6074966;23;20017;-86
2023/11/17 09:52:42;;;;;;;0.77;0.77;;;;;;;9.58;61.68;95251.06;6075058;23;20010;-85
2023/11/17 09:55:08;;;;;;;1.90;0.80;;;;;;;9.56;61.33;95245.22;6075467;23;20033;-86
2023/11/17 10:05:09;;;;;;;1.10;0.98;;;;;;;9.69;61.78;95258.47;6081339;23;20018;-85
2023/11/17 10:07:38;;;;;;;0.95;0.88;;;;;;;9.76;61.53;95274.97;6069626;23;20010;-85
2023/11/17 10:10:06;;;;;;;1.60;0.93;;;;;;;9.82;61.59;95264.88;6046268;23;20014;-85
2023/11/17 10:12:34;;;;;;;1.48;1.10;;;;;;;9.68;62.45;95271.63;6070386;23;20005;-85
2023/11/17 10:15:06;;;;;;;1.30;1.13;;;;;;;9.74;62.03;95269.13;6069963;23;20014;-86
2023/11/17 10:27:49;;;;;;;1.98;1.00;;;;;;;9.72;62.03;95284.09;6094772;23;20034;-86
2023/11/17 10:30:19;;;;;;;1.88;1.08;;;;;;;9.68;61.75;95287.19;6069657;23;20014;-86
2023/11/17 10:33:13;;;;;;;;;;;;;;;9.44;62.62;95286.31;6023046;23;20007;-86
2023/11/17 10:35:46;;;;;;;2.13;1.10;;;;;;;9.76;61.49;95276.75;6067289;23;19909;-86
2023/11/17 10:38:15;;;;;;;1.40;1.30;;;;;;;9.77;61.99;95284.38;6069970;23;20006;-86
2023/11/17 10:43:16;;;;;;;1.50;1.08;;;;;;;9.96;60.52;95272.75;6071451;23;20058;-83
2023/11/17 10:45:43;;;;;;;3.05;0.90;;;;;;;9.88;61.27;95282.38;6069672;23;20011;-84
2023/11/17 10:50:35;;;;;;;0.90;0.80;;;;;;;9.82;61.40;95278.66;6126817;23;20025;-86
2023/11/17 10:53:21;;;;;;;1.40;1.00;;;;;;;10.02;60.85;95279.06;6074296;23;20092;-86
2023/11/17 10:55:53;;;;;;;1.63;1.00;;;;;;;9.94;60.92;95273.91;6098702;23;20002;-86
2023/11/17 10:58:19;;;;;;;1.77;0.85;;;;;;;9.83;61.15;95262.13;6098369;23;20009;-86
2023/11/17 11:00:48;;;;;;;0.85;0.80;;;;;;;10.08;60.44;95278.34;6097678;23;20014;-86
2023/11/17 11:03:15;;;;;;;1.23;0.80;;;;;;;9.91;61.10;95272.44;6082746;23;20032;-86
2023/11/17 11:05:42;;;;;;;1.08;0.82;;;;;;;9.93;60.69;95264.50;6121869;23;20025;-85
2023/11/17 11:08:13;;;;;;;0.80;0.80;;;;;;;10.05;60.40;95270.91;6097468;23;20010;-86
2023/11/17 11:10:47;;;;;;;1.00;0.90;;;;;;;9.91;61.14;95282.84;6121451;23;20009;-85
2023/11/17 11:13:14;;;;;;;0.70;0.70;;;;;;;9.89;60.78;95271.00;6127420;23;20001;-85
2023/11/17 11:15:39;;;;;;;1.00;0.70;;;;;;;9.71;60.96;95271.25;6126802;23;20008;-86
2023/11/17 11:18:06;;;;;;;1.92;0.52;;;;;;;9.82;60.32;95259.69;6102611;23;20009;-86
2023/11/17 11:20:33;;;;;;;0.60;0.57;;;;;;;10.01;59.33;95266.22;6126278;23;20065;-86
2023/11/17 11:23:02;;;;;;;0.43;0.40;;;;;;;10.00;59.31;95275.81;6126857;23;20009;-86
2023/11/17 11:25:28;;;;;;;1.00;0.55;;;;;;;9.85;60.19;95267.94;6127268;23;20040;-85
2023/11/17 11:28:00;;;;;;;0.55;0.50;;;;;;;9.82;60.63;95277.88;6127123;23;20084;-84
2023/11/17 11:30:26;;;;;;;0.93;0.60;;;;;;;9.72;61.33;95284.09;6102802;23;20029;-85
2023/11/17 11:32:52;;;;;;;0.88;0.60;;;;;;;9.85;60.44;95288.72;6126592;23;20009;-85
2023/11/17 11:35:17;;;;;;;0.98;0.70;;;;;;;9.74;61.57;95287.31;6125519;23;20011;-85
2023/11/17 11:37:43;;;;;;;0.60;0.60;;;;;;;9.75;60.71;95283.75;6102498;23;20036;-86
2023/11/17 11:40:12;;;;;;;0.63;0.60;;;;;;;9.86;60.82;95277.38;6126669;23;20016;-86
2023/11/17 11:42:42;;;;;;;0.77;0.70;;;;;;;9.70;60.60;95283.44;6126623;23;20013;-85
2023/11/17 11:45:16;;;;;;;1.35;0.65;;;;;;;9.66;60.62;95291.75;6126519;23;20037;-86
2023/11/17 11:47:49;;;;;;;1.20;0.60;;;;;;;9.78;60.13;95285.19;6126564;23;20040;-86
2023/11/17 11:50:24;;;;;;;0.60;0.60;;;;;;;9.70;61.15;95280.84;6126803;23;20013;-86
2023/11/17 11:53:24;;;;;;;0.60;0.60;;;;;;;9.49;62.09;95278.84;6127306;23;20005;-85
2023/11/17 11:55:53;;;;;;;0.75;0.63;;;;;;;9.68;60.97;95290.59;6126918;23;20061;-86
2023/11/17 11:58:19;;;;;;;0.60;0.60;;;;;;;9.82;60.98;95290.84;6102480;23;20096;-86
2023/11/17 12:00:49;;;;;;;0.90;0.77;;;;;;;9.86;60.64;95284.34;6126467;23;20037;-86
2023/11/17 12:03:14;;;;;;;0.50;0.50;;;;;;;9.78;60.96;95283.41;6126827;23;20005;-86
2023/11/17 12:05:44;;;;;;;0.60;0.52;;;;;;;10.03;60.05;95293.66;6125942;23;20033;-86
2023/11/17 12:08:31;;;;;;;0.50;0.50;;;;;;;9.94;60.26;95286.91;6126326;23;20032;-85
2023/11/17 12:11:06;;;;;;;0.77;0.60;;;;;;;9.89;61.02;95299.59;6103034;23;20014;-85
2023/11/17 12:13:56;;;;;;;0.60;0.50;;;;;;;9.79;60.76;95294.63;6122229;23;20109;-85
2023/11/17 12:16:28;;;;;;;0.50;0.50;;;;;;;9.89;60.98;95299.59;6097015;23;20105;-86
2023/11/17 12:18:53;;;;;;;0.80;0.60;;;;;;;9.95;60.93;95309.28;6095014;23;20036;-86
2023/11/17 12:21:24;;;;;;;0.88;0.70;;;;;;;9.85;61.16;95304.31;6095795;23;20014;-85
2023/11/17 12:24:05;;;;;;;1.45;0.60;;;;;;;10.09;60.11;95305.97;6096457;23;20042;-86
2023/11/17 12:26:30;;;;;;;1.15;0.90;;;;;;;9.95;61.74;95304.09;6097196;23;20088;-85
2023/11/17 12:29:00;;;;;;;0.70;0.65;;;;;;;9.95;60.64;95304.91;6096676;23;20025;-85
2023/11/17 12:31:27;;;;;;;1.08;0.80;;;;;;;9.97;60.99;95307.34;6072679;23;20125;-85
2023/11/17 12:33:54;;;;;;;1.02;0.80;;;;;;;10.08;61.01;95303.53;6095377;23;20009;-87
2023/11/17 12:36:24;;;;;;;0.93;0.85;;;;;;;10.08;60.19;95304.34;6096229;23;20010;-85
2023/11/17 12:38:57;;;;;;;0.88;0.88;;;;;;;9.92;60.49;95314.84;6096545;23;20033;-86
2023/11/17 12:41:25;;;;;;;1.23;0.90;;;;;;;10.23;59.70;95290.63;6072295;23;20081;-85
2023/11/17 12:43:53;;;;;;;2.17;0.90;;;;;;;10.00;60.63;95296.59;6095722;23;20021;-85
2023/11/17 12:46:18;;;;;;;1.10;1.00;;;;;;;9.93;61.17;95299.06;6121017;23;20006;-86
2023/11/17 12:48:45;;;;;;;2.42;1.00;;;;;;;9.67;60.95;95302.00;6073680;23;20025;-86
2023/11/17 12:51:25;;;;;;;1.23;0.82;;;;;;;9.85;59.97;95308.72;6097482;23;20016;-85
2023/11/17 12:53:51;;;;;;;1.13;1.00;;;;;;;9.84;60.54;95307.06;6074146;23;20029;-85
2023/11/17 12:56:17;;;;;;;1.40;0.80;;;;;;;9.66;60.84;95295.16;6097713;23;20041;-85
2023/11/17 12:58:43;;;;;;;0.88;0.77;;;;;;;9.84;60.06;95296.69;6098553;23;20025;-85
2023/11/17 13:01:11;;;;;;;0.85;0.70;;;;;;;9.95;59.79;95304.91;6074538;23;20018;-85
2023/11/17 13:03:38;;;;;;;1.02;0.93;;;;;;;9.86;59.60;95311.16;6098109;23;20021;-85
2023/11/17 13:06:06;;;;;;;1.50;1.00;;;;;;;9.81;60.05;95299.66;6073978;23;20025;-85
2023/11/17 13:08:34;;;;;;;1.98;1.30;;;;;;;9.86;59.99;95307.72;6097418;23;20013;-85
2023/11/17 13:11:01;;;;;;;5.53;3.20;;;;;;;9.73;59.83;95313.47;6098367;23;20010;-86
2023/11/17 13:13:27;;;;;;;2.83;2.08;;;;;;;9.72;60.97;95307.47;6075827;23;20033;-86
2023/11/17 13:15:53;;;;;;;4.95;3.20;;;;;;;9.73;60.08;95306.50;6045605;23;20014;-85
2023/11/17 13:18:19;;;;;;;3.80;2.25;;;;;;;9.73;59.79;95303.09;6068816;23;20010;-86
2023/11/17 13:20:46;;;;;;;1.58;1.20;;;;;;;9.90;59.03;95324.56;6069467;23;20037;-86
2023/11/17 13:23:11;;;;;;;1.40;1.05;;;;;;;9.81;59.94;95310.03;6045304;23;20064;-85
2023/11/17 13:26:07;;;;;;;4.35;1.35;;;;;;;9.75;59.78;95317.53;6068753;23;20404;-88
2023/11/17 13:28:43;;;;;;;2.13;1.45;;;;;;;9.80;58.33;95322.19;6068275;23;20061;-86
2023/11/17 13:31:23;;;;;;;1.25;1.15;;;;;;;9.52;59.86;95319.22;6045170;23;20006;-85
2023/11/17 13:33:52;;;;;;;1.17;1.00;;;;;;;9.79;60.32;95326.59;6045451;23;20070;-86
2023/11/17 13:36:30;;;;;;;2.92;1.45;;;;;;;9.84;60.16;95327.88;6068983;23;20014;-85
2023/11/17 13:41:39;;;;;;;1.65;1.42;;;;;;;9.95;59.81;95340.47;6103534;23;20029;-86
2023/11/17 13:44:06;;;;;;;1.90;1.40;;;;;;;9.91;59.33;95341.78;6067887;23;20006;-85
2023/11/17 13:46:36;;;;;;;4.00;2.50;;;;;;;9.79;60.02;95331.78;6093648;23;20014;-86
2023/11/17 13:49:06;;;;;;;4.20;2.28;;;;;;;9.87;60.19;95338.72;6068810;23;20007;-85
2023/11/17 13:56:48;;;;;;;4.80;2.40;;;;;;;9.82;60.21;95342.81;6099573;23;20030;-84
2023/11/17 13:59:19;;;;;;;2.88;1.73;;;;;;;9.85;59.87;95358.06;6097781;23;20041;-83
2023/11/17 14:01:52;;;;;;;2.83;1.60;;;;;;;9.78;60.24;95357.91;6123436;23;20014;-85
2023/11/17 14:04:24;;;;;;;1.52;1.17;;;;;;;9.71;60.96;95350.00;6121212;23;20009;-85
2023/11/17 14:06:54;;;;;;;1.50;1.33;;;;;;;9.83;60.42;95367.81;6098567;23;20026;-85
2023/11/17 14:09:22;;;;;;;;;;;;;;;9.59;61.29;95366.91;6074095;23;20021;-86
2023/11/17 14:11:49;;;;;;;3.47;1.90;;;;;;;9.95;59.92;95367.25;6075234;23;19975;-85
2023/11/17 14:14:18;;;;;;;4.60;2.15;;;;;;;9.72;60.14;95356.81;6122453;23;20016;-85
2023/11/17 14:19:13;;;;;;;0.90;0.90;;;;;;;9.93;59.37;95364.03;6122093;23;20010;-86
2023/11/17 14:21:43;;;;;;;1.58;1.20;;;;;;;9.97;59.52;95382.69;6045516;23;20022;-86
2023/11/17 14:26:40;;;;;;;1.35;1.10;;;;;;;10.05;59.01;95374.03;6098149;23;20023;-86
2023/11/17 14:29:08;;;;;;;1.35;0.98;;;;;;;10.00;58.97;95358.16;6126778;23;20040;-85
2023/11/17 14:31:36;;;;;;;1.15;1.05;;;;;;;9.97;59.58;95360.09;6126753;23;20084;-86
2023/11/17 14:34:03;;;;;;;1.30;1.10;;;;;;;9.94;59.97;95365.66;6126549;23;20010;-86
2023/11/17 14:36:30;;;;;;;1.42;0.90;;;;;;;9.95;59.12;95362.06;6102322;23;20068;-86
2023/11/17 14:46:41;;;;;;;2.03;1.10;;;;;;;9.78;60.08;95381.31;6151801;23;20022;-86
2023/11/17 14:49:06;;;;;;;1.92;1.02;;;;;;;9.89;60.02;95388.72;6102988;23;20020;-85